American Star — WDD7311 — position and weather

sailwx.info

Track history (hours):
 
Tides and Currents Weather Stations Pressure Air Temp Water Temp Dewpoint Dewpoint Depression Visibility Wind Speed Wind Dir Waves Ship Positions

American Star

Owner: American Cruise Lines, Inc, Delmar, DE. More information available from US FCC via Universal Licensing System and Coast Guard Vessel Documentation Center.

Last reported at 2016-Jul-23 18:32 UTC. Time now 2016-Jul-28 16:25 UTC.
Position N 41°41' W 071°19'.

Length 60 m; draft 2.1 m.

Type: Ship (hazmat cat C). MMSI: 367184740.

Date/timePositionNaut miles runAvg speedWind from/ knotsBaromVisibWave heightAir tempDewpointWater temp
2016-Jul-23 18:32N 41°41' W 071°19'9 1.2
2016-Jul-23 11:06N 41°49' W 071°24'0 0.0
2016-Jul-23 10:29N 41°49' W 071°24'0 0.0
2016-Jul-23 09:29N 41°49' W 071°24'0 0.0
2016-Jul-23 06:29N 41°49' W 071°24'2 0.2
2016-Jul-22 22:27N 41°48' W 071°23'9 9.4
2016-Jul-22 21:33N 41°40' W 071°19'3 0.4
2016-Jul-22 14:32N 41°38' W 071°16'  
2016-Jul-18 13:14N 41°19' W 070°06'0 0.7
2016-Jul-18 12:33N 41°19' W 070°06'5 5.1
2016-Jul-18 11:33N 41°23' W 070°09'1111.2
2016-Jul-18 10:33N 41°28' W 070°23'1110.9
2016-Jul-18 09:33N 41°29' W 070°37'16 0.6
2016-Jul-17 08:16N 41°38' W 070°55'16 1.2
2016-Jul-16 19:07N 41°38' W 071°16'5 8.4
2016-Jul-16 18:33N 41°42' W 071°19'8 0.9
2016-Jul-16 09:26N 41°49' W 071°24'0 0.0
2016-Jul-16 08:15N 41°49' W 071°24'2 0.2
2016-Jul-15 22:24N 41°48' W 071°23'910.3
2016-Jul-15 21:32N 41°39' W 071°19'11 0.3
2016-Jul-14 07:25N 41°29' W 071°20'0 0.0
2016-Jul-14 06:28N 41°29' W 071°20'0 0.0
2016-Jul-14 05:31N 41°29' W 071°20'0 0.0
2016-Jul-14 03:28N 41°29' W 071°20'  
Track history (hours):
 
Tides and Currents Weather Stations Pressure Air Temp Water Temp Dewpoint Dewpoint Depression Visibility Wind Speed Wind Dir Waves Ship Positions

American Star

Owner: American Cruise Lines, Inc, Delmar, DE. More information available from US FCC via Universal Licensing System and Coast Guard Vessel Documentation Center.

Last reported at 2016-Jul-23 18:32 UTC. Time now 2016-Jul-28 16:25 UTC.
Position N 41°41' W 071°19'.

Length 60 m; draft 2.1 m.

Type: Ship (hazmat cat C). MMSI: 367184740.

Date/timePositionNaut miles runAvg speedWind from/ knotsBaromVisibWave heightAir tempDewpointWater temp
2016-Jul-23 18:32N 41°41' W 071°19'9 1.2
2016-Jul-23 11:06N 41°49' W 071°24'0 0.0
2016-Jul-23 10:29N 41°49' W 071°24'0 0.0
2016-Jul-23 09:29N 41°49' W 071°24'0 0.0
2016-Jul-23 06:29N 41°49' W 071°24'2 0.2
2016-Jul-22 22:27N 41°48' W 071°23'9 9.4
2016-Jul-22 21:33N 41°40' W 071°19'3 0.4
2016-Jul-22 14:32N 41°38' W 071°16'  
2016-Jul-18 13:14N 41°19' W 070°06'0 0.7
2016-Jul-18 12:33N 41°19' W 070°06'5 5.1
2016-Jul-18 11:33N 41°23' W 070°09'1111.2
2016-Jul-18 10:33N 41°28' W 070°23'1110.9
2016-Jul-18 09:33N 41°29' W 070°37'16 0.6
2016-Jul-17 08:16N 41°38' W 070°55'16 1.2
2016-Jul-16 19:07N 41°38' W 071°16'5 8.4
2016-Jul-16 18:33N 41°42' W 071°19'8 0.9
2016-Jul-16 09:26N 41°49' W 071°24'0 0.0
2016-Jul-16 08:15N 41°49' W 071°24'2 0.2
2016-Jul-15 22:24N 41°48' W 071°23'910.3
2016-Jul-15 21:32N 41°39' W 071°19'11 0.3
2016-Jul-14 07:25N 41°29' W 071°20'0 0.0
2016-Jul-14 06:28N 41°29' W 071°20'0 0.0
2016-Jul-14 05:31N 41°29' W 071°20'0 0.0
2016-Jul-14 03:28N 41°29' W 071°20'  

Dump ship's entire track history